Time;durP1;ratioP1;P1;durP2;ratioP2;P2;SDS_P1;SDS_P2;PMS_P1;PMS_P2;Temp;Humidity;BMP_temperature;BMP_pressure;BME280_temperature;BME280_humidity;BME280_pressure;Samples;Min_cycle;Max_cycle;Signal;HPM_P1;HPM_P2
2022/03/04 00:01:55;;;;;;;4.93;3.13;;;17.10;40.80;;;;;;5124464;27;45169;-80
2022/03/04 00:04:22;;;;;;;4.45;3.40;;;17.10;40.70;;;;;;5123482;27;47392;-81
2022/03/04 00:06:49;;;;;;;4.88;3.45;;;17.10;40.80;;;;;;5124482;27;45315;-81
2022/03/04 00:09:17;;;;;;;4.47;3.22;;;17.10;40.80;;;;;;5128338;27;45356;-81
2022/03/04 00:11:44;;;;;;;5.68;3.28;;;17.00;40.50;;;;;;5118447;27;45343;-81
2022/03/04 00:14:11;;;;;;;5.35;3.53;;;17.10;40.70;;;;;;5120749;27;47003;-81
2022/03/04 00:16:38;;;;;;;4.40;3.05;;;17.10;40.40;;;;;;5112264;27;45285;-81
2022/03/04 00:19:09;;;;;;;4.45;3.05;;;17.10;40.80;;;;;;5119539;27;45388;-81
2022/03/04 00:21:37;;;;;;;4.00;2.90;;;17.10;40.50;;;;;;5129080;27;45247;-81
2022/03/04 00:24:05;;;;;;;4.85;2.85;;;17.10;40.20;;;;;;5128936;27;47921;-81
2022/03/04 00:26:33;;;;;;;5.55;3.35;;;17.10;40.30;;;;;;5123608;27;45197;-81
2022/03/04 00:29:00;;;;;;;5.30;3.53;;;17.00;39.70;;;;;;5122988;27;45210;-81
2022/03/04 00:31:27;;;;;;;5.57;3.00;;;17.00;39.60;;;;;;5122026;27;45318;-81
2022/03/04 00:33:54;;;;;;;5.55;3.13;;;17.00;39.40;;;;;;5123624;27;46907;-81
2022/03/04 00:36:22;;;;;;;5.75;2.95;;;17.00;39.60;;;;;;5121119;27;45250;-81
2022/03/04 00:38:49;;;;;;;5.55;3.65;;;17.00;40.40;;;;;;5122545;27;45334;-81
2022/03/04 00:41:17;;;;;;;5.15;3.08;;;17.00;40.00;;;;;;5121136;27;46056;-81
2022/03/04 00:43:46;;;;;;;4.68;3.28;;;17.00;40.30;;;;;;5120098;27;48037;-81
2022/03/04 00:46:15;;;;;;;5.05;3.08;;;17.10;40.40;;;;;;5112984;27;45158;-81
2022/03/04 00:48:42;;;;;;;6.10;2.97;;;17.10;40.20;;;;;;5118022;27;45891;-81
2022/03/04 00:51:09;;;;;;;4.70;3.35;;;17.10;40.30;;;;;;5120350;27;45436;-81
2022/03/04 00:53:36;;;;;;;4.15;2.65;;;17.10;40.40;;;;;;5120343;27;47524;-81
2022/03/04 00:56:04;;;;;;;5.05;3.58;;;17.10;40.50;;;;;;5123461;27;45272;-81
2022/03/04 00:58:31;;;;;;;4.40;3.10;;;17.00;40.10;;;;;;5119123;27;45443;-81
2022/03/04 01:00:59;;;;;;;5.15;3.13;;;17.10;40.20;;;;;;5121665;27;45472;-81
2022/03/04 01:03:26;;;;;;;5.00;3.63;;;17.10;40.50;;;;;;5116654;27;46613;-81
2022/03/04 01:05:54;;;;;;;3.97;2.92;;;17.10;40.10;;;;;;5124873;27;45184;-81
2022/03/04 01:08:21;;;;;;;4.30;3.22;;;17.10;40.30;;;;;;5112700;27;45427;-81
2022/03/04 01:10:48;;;;;;;4.93;3.28;;;17.10;40.20;;;;;;5111899;27;45317;-81
2022/03/04 01:13:15;;;;;;;4.82;3.45;;;17.00;40.00;;;;;;5122637;27;46703;-81
2022/03/04 01:15:42;;;;;;;4.13;3.22;;;17.10;39.90;;;;;;5120923;27;45289;-81
2022/03/04 01:18:11;;;;;;;5.68;2.95;;;17.10;40.40;;;;;;5125330;27;45176;-81
2022/03/04 01:20:38;;;;;;;5.25;3.60;;;17.00;39.70;;;;;;5112190;27;45522;-81
2022/03/04 01:23:05;;;;;;;4.95;3.00;;;17.10;39.10;;;;;;5126696;27;48133;-81
2022/03/04 01:25:32;;;;;;;5.07;3.58;;;17.00;39.00;;;;;;5125573;27;45301;-81
2022/03/04 01:27:59;;;;;;;5.40;3.55;;;17.00;39.20;;;;;;5118479;27;45199;-81
2022/03/04 01:30:26;;;;;;;5.25;3.30;;;17.00;38.90;;;;;;5127124;27;45294;-80
2022/03/04 01:32:53;;;;;;;4.30;3.00;;;17.00;38.90;;;;;;5125070;27;46288;-81
2022/03/04 01:35:21;;;;;;;5.45;3.63;;;17.00;39.10;;;;;;5120426;27;46214;-81
2022/03/04 01:37:48;;;;;;;4.63;3.25;;;17.00;38.90;;;;;;5110843;27;45176;-81
2022/03/04 01:40:15;;;;;;;5.28;3.47;;;17.00;40.00;;;;;;5125583;27;45185;-81
2022/03/04 01:42:42;;;;;;;4.95;3.55;;;17.00;39.80;;;;;;5112721;27;46382;-80
2022/03/04 01:45:11;;;;;;;4.38;2.97;;;17.00;40.00;;;;;;5110311;27;45205;-81
2022/03/04 01:47:41;;;;;;;4.82;2.97;;;17.00;39.70;;;;;;5125834;27;45144;-80
2022/03/04 01:50:09;;;;;;;4.82;3.47;;;17.00;39.80;;;;;;5124180;27;46347;-81
2022/03/04 01:52:38;;;;;;;5.63;3.22;;;17.10;39.60;;;;;;5123278;27;46596;-80
2022/03/04 01:55:06;;;;;;;4.93;3.45;;;17.00;39.60;;;;;;5128681;27;45120;-80
2022/03/04 01:57:33;;;;;;;4.50;3.20;;;17.10;39.90;;;;;;5124095;27;45288;-81
2022/03/04 01:59:59;;;;;;;4.50;3.40;;;17.10;39.60;;;;;;5122882;27;45800;-80
2022/03/04 02:02:27;;;;;;;5.15;3.10;;;17.00;39.70;;;;;;5108478;27;48263;-80
2022/03/04 02:04:54;;;;;;;5.85;3.65;;;17.00;39.60;;;;;;5113620;27;45251;-80
2022/03/04 02:07:21;;;;;;;5.10;3.33;;;17.10;39.60;;;;;;5112048;27;45368;-80
2022/03/04 02:09:49;;;;;;;4.85;3.55;;;17.00;39.70;;;;;;5118115;27;45268;-80
2022/03/04 02:12:16;;;;;;;4.65;3.42;;;17.00;39.90;;;;;;5128210;27;46144;-80
2022/03/04 02:14:43;;;;;;;5.40;3.35;;;17.10;39.40;;;;;;5123647;27;45148;-80
2022/03/04 02:17:10;;;;;;;5.18;3.75;;;17.00;38.80;;;;;;5112742;27;45325;-80
2022/03/04 02:19:37;;;;;;;5.15;3.90;;;17.00;38.70;;;;;;5120440;27;45345;-80
2022/03/04 02:22:07;;;;;;;5.32;3.45;;;17.00;38.70;;;;;;5119993;27;45385;-80
2022/03/04 02:24:35;;;;;;;5.53;3.58;;;17.00;38.50;;;;;;5122653;27;45181;-80
2022/03/04 02:27:04;;;;;;;5.20;3.53;;;17.00;38.60;;;;;;5113727;27;45246;-80
2022/03/04 02:29:34;;;;;;;4.65;3.03;;;17.00;38.60;;;;;;5123195;27;45378;-80
2022/03/04 02:32:02;;;;;;;5.25;3.33;;;17.00;38.60;;;;;;5116949;27;46469;-80
2022/03/04 02:34:29;;;;;;;3.67;3.00;;;17.00;38.80;;;;;;5126456;27;45334;-80
2022/03/04 02:36:57;;;;;;;5.22;3.38;;;17.00;38.80;;;;;;5121883;27;45226;-80
2022/03/04 02:39:26;;;;;;;6.13;3.55;;;17.00;40.00;;;;;;5122374;27;45347;-80
2022/03/04 02:41:53;;;;;;;6.22;3.70;;;17.00;38.90;;;;;;5127941;27;46267;-80
2022/03/04 02:44:20;;;;;;;5.93;3.45;;;17.00;39.10;;;;;;5115226;27;45278;-80
2022/03/04 02:46:47;;;;;;;4.75;3.47;;;17.00;39.60;;;;;;5128928;27;45303;-80
2022/03/04 02:49:14;;;;;;;4.35;3.42;;;17.00;39.60;;;;;;5118919;27;45323;-80
2022/03/04 02:51:41;;;;;;;6.03;3.55;;;17.00;39.50;;;;;;5124468;27;47883;-80
2022/03/04 02:54:08;;;;;;;4.70;3.20;;;17.00;39.50;;;;;;5114153;27;45381;-80
2022/03/04 02:56:37;;;;;;;4.55;3.42;;;17.00;39.50;;;;;;5113522;27;45327;-80
2022/03/04 02:59:04;;;;;;;6.20;3.28;;;17.00;39.40;;;;;;5119207;27;45308;-81
2022/03/04 03:01:31;;;;;;;4.55;3.20;;;17.00;39.30;;;;;;5129542;27;46125;-80
2022/03/04 03:03:58;;;;;;;6.05;3.70;;;17.00;39.50;;;;;;5126686;27;45272;-80
2022/03/04 03:06:24;;;;;;;5.75;4.15;;;17.00;39.40;;;;;;5120549;27;45302;-80
2022/03/04 03:08:51;;;;;;;4.88;3.75;;;17.00;38.80;;;;;;5110791;27;45317;-80
2022/03/04 03:11:18;;;;;;;5.47;3.80;;;17.00;38.50;;;;;;5125642;27;46290;-79
2022/03/04 03:13:46;;;;;;;5.07;3.40;;;17.00;38.50;;;;;;5123127;27;45164;-80
2022/03/04 03:16:13;;;;;;;4.47;3.33;;;17.00;38.30;;;;;;5120421;27;45241;-80
2022/03/04 03:18:40;;;;;;;5.57;3.50;;;17.00;38.40;;;;;;5114460;27;45370;-80
2022/03/04 03:21:07;;;;;;;5.30;3.50;;;17.00;38.30;;;;;;5117255;27;45770;-80
2022/03/04 03:23:34;;;;;;;6.05;4.05;;;17.00;38.30;;;;;;5120097;27;45413;-80
2022/03/04 03:26:01;;;;;;;5.05;3.58;;;16.90;38.50;;;;;;5114048;27;45185;-80
2022/03/04 03:28:27;;;;;;;4.82;3.47;;;16.90;38.30;;;;;;5115373;27;46398;-80
2022/03/04 03:30:56;;;;;;;4.93;3.38;;;16.90;38.60;;;;;;5120674;27;46447;-80
2022/03/04 03:33:23;;;;;;;5.20;3.50;;;17.00;39.10;;;;;;5112423;27;45221;-80
2022/03/04 03:35:54;;;;;;;4.97;3.75;;;17.00;39.10;;;;;;5127739;27;45186;-80
2022/03/04 03:38:21;;;;;;;5.53;3.30;;;17.00;39.20;;;;;;5128067;27;45632;-80
2022/03/04 03:40:48;;;;;;;4.40;3.20;;;17.00;39.30;;;;;;5129367;27;47356;-81
2022/03/04 03:43:15;;;;;;;5.05;3.33;;;17.00;39.20;;;;;;5122964;27;45160;-80
2022/03/04 03:45:42;;;;;;;5.82;3.70;;;17.00;39.00;;;;;;5121323;27;45162;-80
2022/03/04 03:48:10;;;;;;;6.68;3.30;;;17.00;39.30;;;;;;5117920;27;45289;-80
2022/03/04 03:50:38;;;;;;;4.20;3.03;;;17.00;39.40;;;;;;5130407;27;46433;-81
2022/03/04 03:53:05;;;;;;;5.65;3.10;;;17.00;39.40;;;;;;5116694;27;45320;-81
2022/03/04 03:55:32;;;;;;;4.68;3.50;;;17.00;38.90;;;;;;5115237;27;45309;-81
2022/03/04 03:57:59;;;;;;;4.57;3.25;;;17.00;39.20;;;;;;5126848;27;45167;-81
2022/03/04 04:00:26;;;;;;;5.07;3.40;;;17.00;39.30;;;;;;5125682;27;45420;-80
2022/03/04 04:02:53;;;;;;;4.28;3.33;;;17.00;39.00;;;;;;5122286;27;45282;-80
2022/03/04 04:05:22;;;;;;;4.18;3.45;;;17.00;38.40;;;;;;5127688;27;45257;-81
2022/03/04 04:07:48;;;;;;;6.60;4.18;;;17.00;38.40;;;;;;5115429;27;45200;-80
2022/03/04 04:10:15;;;;;;;5.10;3.95;;;17.00;38.00;;;;;;5117496;27;46678;-80
2022/03/04 04:12:42;;;;;;;7.30;4.50;;;17.00;37.40;;;;;;5122346;27;45442;-80
2022/03/04 04:15:09;;;;;;;6.00;4.28;;;16.90;36.00;;;;;;5121244;27;45354;-80
2022/03/04 04:17:36;;;;;;;7.10;4.78;;;16.90;35.70;;;;;;5123068;27;45149;-80
2022/03/04 04:20:03;;;;;;;6.28;4.03;;;16.90;35.70;;;;;;5119301;27;46278;-80
2022/03/04 04:22:32;;;;;;;5.00;4.18;;;16.90;35.60;;;;;;5119464;27;45366;-80
2022/03/04 04:24:58;;;;;;;6.18;4.20;;;16.90;35.50;;;;;;5124711;27;45259;-80
2022/03/04 04:27:25;;;;;;;6.35;4.25;;;16.90;35.50;;;;;;5119029;27;45333;-80
2022/03/04 04:29:52;;;;;;;5.35;4.13;;;16.90;35.80;;;;;;5119304;27;46328;-80
2022/03/04 04:32:19;;;;;;;5.68;4.15;;;16.90;35.50;;;;;;5112403;27;45192;-81
2022/03/04 04:34:46;;;;;;;7.55;4.47;;;16.90;36.90;;;;;;5128888;27;45228;-80
2022/03/04 04:37:13;;;;;;;5.90;4.40;;;16.90;35.90;;;;;;5124191;27;45473;-80
2022/03/04 04:39:41;;;;;;;7.18;4.68;;;16.90;35.90;;;;;;5120145;27;46611;-80
2022/03/04 04:42:08;;;;;;;6.03;4.20;;;16.90;37.40;;;;;;5120561;27;45210;-80
2022/03/04 04:44:35;;;;;;;6.68;4.28;;;16.90;36.30;;;;;;5115627;27;45380;-80
2022/03/04 04:47:02;;;;;;;5.80;4.28;;;16.90;36.60;;;;;;5121889;27;45278;-80
2022/03/04 04:49:29;;;;;;;6.13;3.90;;;16.90;36.10;;;;;;5126717;27;46596;-80
2022/03/04 04:51:56;;;;;;;7.65;4.53;;;16.90;36.50;;;;;;5119720;27;45607;-80
2022/03/04 04:54:23;;;;;;;6.10;3.88;;;16.90;35.40;;;;;;5112587;27;45360;-80
2022/03/04 04:56:51;;;;;;;6.72;4.72;;;16.90;35.40;;;;;;5107503;27;45537;-80
2022/03/04 04:59:18;;;;;;;6.13;4.20;;;16.90;35.40;;;;;;5130801;27;45590;-81
2022/03/04 05:01:45;;;;;;;6.60;4.55;;;16.90;35.30;;;;;;5125976;27;45300;-80
2022/03/04 05:04:12;;;;;;;5.72;4.38;;;16.90;35.20;;;;;;5113371;27;45303;-80
2022/03/04 05:06:39;;;;;;;7.45;4.85;;;16.80;35.20;;;;;;5121905;27;45430;-81
2022/03/04 05:09:07;;;;;;;5.70;4.10;;;16.80;35.40;;;;;;5124115;27;46185;-83
2022/03/04 05:11:34;;;;;;;5.88;4.35;;;16.70;35.30;;;;;;5109703;27;45461;-83
2022/03/04 05:14:02;;;;;;;6.60;4.53;;;16.70;35.40;;;;;;5119895;27;45456;-82
2022/03/04 05:16:29;;;;;;;6.10;4.25;;;16.70;35.40;;;;;;5120516;27;45694;-82
2022/03/04 05:18:56;;;;;;;7.43;4.88;;;16.70;35.30;;;;;;5113621;27;47522;-81
2022/03/04 05:21:23;;;;;;;6.78;4.90;;;16.70;36.10;;;;;;5124907;27;46599;-82
2022/03/04 05:24:02;;;;;;;6.03;4.22;;;16.70;35.70;;;;;;5108496;27;45299;-81
2022/03/04 05:26:30;;;;;;;7.03;4.55;;;16.70;35.90;;;;;;5115453;27;45638;-81
2022/03/04 05:28:58;;;;;;;6.78;4.80;;;16.70;35.50;;;;;;5107990;27;45236;-81
2022/03/04 05:31:27;;;;;;;7.43;4.53;;;16.80;35.90;;;;;;5111997;27;45206;-81
2022/03/04 05:33:54;;;;;;;6.97;4.55;;;16.80;36.20;;;;;;5117296;27;45306;-82
2022/03/04 05:36:22;;;;;;;6.40;4.18;;;16.80;35.40;;;;;;5115248;27;45494;-81
2022/03/04 05:38:50;;;;;;;7.38;5.05;;;16.80;35.50;;;;;;5122778;27;46435;-81
2022/03/04 05:41:17;;;;;;;6.93;4.50;;;16.80;35.00;;;;;;5123968;27;45332;-81
2022/03/04 05:43:45;;;;;;;6.95;4.38;;;16.80;35.10;;;;;;5116461;27;45469;-82
2022/03/04 05:46:13;;;;;;;6.60;4.38;;;16.80;35.00;;;;;;5116118;27;45455;-81
2022/03/04 05:48:41;;;;;;;7.38;4.70;;;16.80;34.30;;;;;;5126490;27;48383;-81
2022/03/04 05:51:09;;;;;;;9.27;4.55;;;16.80;34.10;;;;;;5124729;27;45386;-81
2022/03/04 05:53:36;;;;;;;8.43;5.03;;;16.70;33.90;;;;;;5124971;27;46749;-84
2022/03/04 05:56:04;;;;;;;7.35;4.95;;;16.70;33.90;;;;;;5125067;27;45193;-83
2022/03/04 05:58:31;;;;;;;7.10;4.72;;;16.70;34.00;;;;;;5120579;27;46443;-82
2022/03/04 06:00:57;;;;;;;7.40;5.07;;;16.60;34.10;;;;;;5127390;27;45197;-85
2022/03/04 06:03:24;;;;;;;6.95;4.50;;;16.60;33.90;;;;;;5127681;27;45310;-84
2022/03/04 06:05:52;;;;;;;7.50;5.30;;;16.50;34.30;;;;;;5130437;27;45290;-83
2022/03/04 06:08:19;;;;;;;7.95;4.68;;;16.50;34.50;;;;;;5127034;27;46471;-84
2022/03/04 06:10:47;;;;;;;6.55;4.55;;;16.50;34.40;;;;;;5139087;27;45219;-84
2022/03/04 06:13:14;;;;;;;6.60;4.88;;;16.50;33.80;;;;;;5120912;27;45217;-83
2022/03/04 06:15:41;;;;;;;7.63;5.05;;;16.60;33.70;;;;;;5120253;27;45275;-82
2022/03/04 06:18:08;;;;;;;7.90;5.15;;;16.60;33.30;;;;;;5125470;27;47405;-84
2022/03/04 06:20:35;;;;;;;7.93;5.45;;;16.60;33.20;;;;;;5121876;27;45208;-82
2022/03/04 06:23:04;;;;;;;6.05;4.65;;;16.60;33.10;;;;;;5119803;27;45286;-83
2022/03/04 06:25:31;;;;;;;6.63;5.20;;;16.60;32.90;;;;;;5131431;27;45462;-83
2022/03/04 06:27:59;;;;;;;7.23;5.30;;;16.50;33.20;;;;;;5119364;27;47393;-83
2022/03/04 06:30:30;;;;;;;7.43;5.78;;;16.50;33.20;;;;;;5118130;27;45263;-83
2022/03/04 06:33:30;;;;;;;8.07;5.63;;;16.50;33.20;;;;;;5119551;27;45399;-82
2022/03/04 06:35:57;;;;;;;7.13;4.82;;;16.50;33.20;;;;;;5117926;27;45095;-81
2022/03/04 06:38:26;;;;;;;6.85;5.30;;;16.50;33.10;;;;;;5110012;27;47158;-83
2022/03/04 06:40:53;;;;;;;7.20;5.43;;;16.50;33.00;;;;;;5116324;27;45247;-83
2022/03/04 06:43:20;;;;;;;6.43;5.07;;;16.50;33.30;;;;;;5125629;27;45277;-80
2022/03/04 06:45:48;;;;;;;7.17;5.00;;;16.50;34.40;;;;;;5122191;27;45613;-82
2022/03/04 06:48:18;;;;;;;6.45;5.13;;;16.40;34.40;;;;;;5117252;27;46308;-81
2022/03/04 06:50:46;;;;;;;5.85;4.50;;;16.40;34.60;;;;;;5125967;27;45349;-82
2022/03/04 06:53:12;;;;;;;6.55;4.57;;;16.40;35.80;;;;;;5122795;27;45503;-85
2022/03/04 06:55:41;;;;;;;5.85;4.28;;;16.50;36.30;;;;;;5111950;27;45357;-83
2022/03/04 06:58:08;;;;;;;6.97;4.30;;;16.50;36.90;;;;;;5126225;27;46183;-82
2022/03/04 07:00:35;;;;;;;6.40;4.13;;;16.50;37.40;;;;;;5120378;27;45404;-82
2022/03/04 07:03:02;;;;;;;6.65;4.28;;;16.60;37.80;;;;;;5125815;27;45468;-83
2022/03/04 07:05:30;;;;;;;6.63;4.28;;;16.60;38.00;;;;;;5117149;27;45167;-82
2022/03/04 07:07:57;;;;;;;6.30;4.35;;;16.70;37.30;;;;;;5126950;27;48081;-82
2022/03/04 07:10:24;;;;;;;6.00;4.65;;;16.70;36.80;;;;;;5123420;27;45461;-81
2022/03/04 07:12:53;;;;;;;5.97;4.50;;;16.70;36.20;;;;;;5111290;27;45430;-81
2022/03/04 07:15:20;;;;;;;6.05;4.63;;;16.70;35.90;;;;;;5111230;27;45460;-81
2022/03/04 07:17:48;;;;;;;6.93;4.32;;;16.70;35.90;;;;;;5112700;27;45690;-81
2022/03/04 07:20:15;;;;;;;6.20;4.50;;;16.70;35.60;;;;;;5130087;27;45618;-81
2022/03/04 07:22:43;;;;;;;6.80;4.30;;;16.70;35.80;;;;;;5142760;27;45327;-82
2022/03/04 07:25:12;;;;;;;8.02;4.88;;;16.70;35.60;;;;;;5127776;27;45186;-81
2022/03/04 07:27:40;;;;;;;7.20;5.07;;;16.70;35.40;;;;;;5127616;27;46444;-81
2022/03/04 07:30:12;;;;;;;7.43;4.90;;;16.70;35.10;;;;;;5130828;27;45408;-81
2022/03/04 07:32:40;;;;;;;8.30;5.20;;;16.70;35.00;;;;;;5127117;27;45401;-81
2022/03/04 07:35:08;;;;;;;8.32;5.32;;;16.70;34.80;;;;;;5121386;27;45225;-82
2022/03/04 07:37:35;;;;;;;7.45;4.72;;;16.70;34.90;;;;;;5109570;27;46492;-82
2022/03/04 07:40:02;;;;;;;7.97;5.00;;;16.70;35.00;;;;;;5109298;27;45266;-82
2022/03/04 07:42:29;;;;;;;8.35;5.47;;;16.70;34.80;;;;;;5109616;27;45213;-82
2022/03/04 07:44:57;;;;;;;7.60;4.72;;;16.70;34.90;;;;;;5110571;27;45177;-82
2022/03/04 07:47:25;;;;;;;7.85;5.00;;;16.70;34.70;;;;;;5109874;27;45461;-82
2022/03/04 07:49:52;;;;;;;7.07;4.78;;;16.70;34.90;;;;;;5128403;27;45254;-82
2022/03/04 07:52:19;;;;;;;8.55;5.55;;;16.70;34.80;;;;;;5125723;27;45390;-81
2022/03/04 07:54:46;;;;;;;7.35;4.93;;;16.70;35.10;;;;;;5123668;27;45284;-81
2022/03/04 07:57:13;;;;;;;6.85;4.57;;;16.70;35.10;;;;;;5120536;27;46393;-80
2022/03/04 07:59:40;;;;;;;5.28;3.80;;;16.70;35.10;;;;;;5122819;27;45545;-84
2022/03/04 08:02:07;;;;;;;6.28;3.88;;;16.70;38.40;;;;;;5125861;27;45349;-83
2022/03/04 08:04:35;;;;;;;6.60;4.28;;;16.80;41.30;;;;;;5125454;27;45288;-83
2022/03/04 08:07:02;;;;;;;7.18;4.13;;;16.90;40.10;;;;;;5126787;27;47911;-84
2022/03/04 08:09:29;;;;;;;6.10;3.67;;;17.00;39.00;;;;;;5126146;27;45213;-84
2022/03/04 08:11:56;;;;;;;5.93;3.78;;;17.00;38.90;;;;;;5115538;27;45469;-83
2022/03/04 08:14:23;;;;;;;6.47;4.10;;;17.00;38.80;;;;;;5128594;27;45980;-83
2022/03/04 08:16:50;;;;;;;5.95;4.18;;;17.00;38.10;;;;;;5128358;27;45167;-82
2022/03/04 08:19:16;;;;;;;5.28;3.95;;;17.00;38.10;;;;;;5126502;27;45572;-82
2022/03/04 08:21:45;;;;;;;5.75;3.78;;;17.00;38.10;;;;;;5125585;27;45364;-83
2022/03/04 08:24:12;;;;;;;5.38;3.42;;;17.00;38.10;;;;;;5122692;27;45273;-82
2022/03/04 08:26:41;;;;;;;5.88;3.70;;;17.00;37.90;;;;;;5128013;27;46602;-82
2022/03/04 08:29:08;;;;;;;5.55;3.95;;;17.00;37.40;;;;;;5125270;27;46038;-82
2022/03/04 08:31:35;;;;;;;5.97;4.20;;;17.00;37.40;;;;;;5147286;27;45095;-82
2022/03/04 08:34:02;;;;;;;7.53;3.97;;;17.00;37.60;;;;;;5114147;27;45529;-83
2022/03/04 08:36:29;;;;;;;5.32;3.40;;;17.00;37.70;;;;;;5121258;27;47670;-82
2022/03/04 08:38:59;;;;;;;5.80;3.40;;;17.00;37.40;;;;;;5125687;27;46489;-82
2022/03/04 08:41:26;;;;;;;5.60;3.85;;;17.00;37.40;;;;;;5124723;27;45273;-83
2022/03/04 08:43:52;;;;;;;5.13;3.70;;;17.00;37.00;;;;;;5129350;27;45350;-82
2022/03/04 08:46:19;;;;;;;7.50;4.63;;;17.00;36.70;;;;;;5129041;27;47366;-83
2022/03/04 08:48:46;;;;;;;6.75;4.32;;;17.00;37.40;;;;;;5115655;27;45212;-83
2022/03/04 08:51:13;;;;;;;6.63;4.40;;;17.00;37.00;;;;;;5127540;27;45283;-84
2022/03/04 08:53:40;;;;;;;7.50;4.45;;;17.00;37.10;;;;;;5117673;27;45434;-83
2022/03/04 08:56:09;;;;;;;6.03;3.42;;;17.00;37.70;;;;;;5111737;27;48205;-83
2022/03/04 08:58:36;;;;;;;5.97;3.85;;;17.00;37.10;;;;;;5125560;27;45396;-83
2022/03/04 09:01:03;;;;;;;8.77;3.85;;;17.10;37.70;;;;;;5129484;27;45239;-83
2022/03/04 09:03:30;;;;;;;6.43;3.58;;;17.10;37.60;;;;;;5120263;27;45165;-83
2022/03/04 09:05:57;;;;;;;5.35;3.70;;;17.10;37.30;;;;;;5125432;27;45233;-83
2022/03/04 09:08:23;;;;;;;7.15;3.95;;;17.10;37.20;;;;;;5126127;27;45366;-82
2022/03/04 09:10:50;;;;;;;7.90;4.00;;;17.10;38.00;;;;;;5128936;27;45131;-83
2022/03/04 09:13:18;;;;;;;6.00;3.45;;;17.10;37.70;;;;;;5108646;27;45322;-82
2022/03/04 09:15:45;;;;;;;5.18;3.83;;;17.10;37.50;;;;;;5114568;27;46023;-82
2022/03/04 09:18:12;;;;;;;6.05;3.95;;;17.10;37.10;;;;;;5126860;27;45329;-82
2022/03/04 09:20:39;;;;;;;6.03;3.65;;;17.10;37.50;;;;;;5123180;27;45237;-83
2022/03/04 09:23:06;;;;;;;7.50;4.28;;;17.10;37.50;;;;;;5126057;27;45326;-81
2022/03/04 09:25:34;;;;;;;6.20;3.80;;;17.10;37.50;;;;;;5123027;27;45494;-82
2022/03/04 09:28:01;;;;;;;7.95;3.65;;;17.10;36.60;;;;;;5109822;27;45504;-82
2022/03/04 09:30:31;;;;;;;6.55;3.92;;;17.00;37.70;;;;;;5124166;27;45281;-83
2022/03/04 09:32:58;;;;;;;5.72;3.80;;;17.10;37.80;;;;;;5116010;27;45361;-82
2022/03/04 09:35:25;;;;;;;6.45;4.18;;;17.10;36.80;;;;;;5118505;27;46403;-82
2022/03/04 09:37:51;;;;;;;6.07;4.53;;;17.10;37.90;;;;;;5124625;27;45500;-82
2022/03/04 09:40:18;;;;;;;7.72;4.43;;;17.10;36.80;;;;;;5133415;27;45254;-81
2022/03/04 09:42:45;;;;;;;9.50;4.25;;;17.10;38.10;;;;;;5132294;27;45252;-82
2022/03/04 09:45:12;;;;;;;5.80;4.07;;;17.10;36.80;;;;;;5108699;27;45243;-82
2022/03/04 09:47:42;;;;;;;7.32;4.60;;;17.10;37.30;;;;;;5113505;27;46060;-82
2022/03/04 09:50:10;;;;;;;5.20;3.45;;;17.10;37.50;;;;;;5128160;27;45407;-82
2022/03/04 09:52:37;;;;;;;5.93;3.85;;;17.10;37.80;;;;;;5129264;27;45364;-81
2022/03/04 09:55:04;;;;;;;6.35;4.10;;;17.10;38.30;;;;;;5124146;27;48137;-82
2022/03/04 09:57:31;;;;;;;5.68;3.80;;;17.10;37.80;;;;;;5119486;27;45268;-82
2022/03/04 09:59:57;;;;;;;7.53;4.55;;;17.10;38.30;;;;;;5122680;27;45491;-81
2022/03/04 10:02:25;;;;;;;5.70;3.75;;;17.20;37.90;;;;;;5108781;27;45163;-82
2022/03/04 10:05:00;;;;;;;6.82;4.60;;;17.10;37.50;;;;;;5125645;27;47413;-81
2022/03/04 10:07:27;;;;;;;7.50;4.97;;;17.20;37.60;;;;;;5123115;27;45678;-82
2022/03/04 10:09:54;;;;;;;6.45;4.10;;;17.20;37.60;;;;;;5117931;27;45493;-81
2022/03/04 10:12:22;;;;;;;6.97;4.57;;;17.20;37.70;;;;;;5108586;27;45117;-81
2022/03/04 10:15:01;;;;;;;6.43;4.20;;;17.20;37.20;;;;;;5127127;27;46301;-82
2022/03/04 10:17:29;;;;;;;6.43;3.50;;;17.20;36.90;;;;;;5117657;27;45223;-82
2022/03/04 10:19:57;;;;;;;5.68;3.50;;;17.20;38.30;;;;;;5126700;27;45250;-81
2022/03/04 10:22:35;;;;;;;6.00;4.50;;;17.20;39.00;;;;;;5128051;27;45247;-81
2022/03/04 10:25:02;;;;;;;6.65;4.47;;;17.10;39.40;;;;;;5114020;27;45273;-82
2022/03/04 10:27:33;;;;;;;6.22;4.30;;;17.20;39.70;;;;;;5127288;27;45178;-81
2022/03/04 10:30:03;;;;;;;5.95;4.13;;;17.20;39.80;;;;;;5128738;27;45172;-82
2022/03/04 10:32:30;;;;;;;7.82;5.00;;;17.20;39.80;;;;;;5130028;27;45191;-81
2022/03/04 10:34:59;;;;;;;6.63;4.30;;;17.20;39.70;;;;;;5128236;27;46495;-81
2022/03/04 10:37:41;;;;;;;8.20;5.05;;;17.20;39.70;;;;;;5131653;27;45290;-81
2022/03/04 10:40:11;;;;;;;7.30;4.57;;;17.20;39.50;;;;;;5111032;27;45389;-81
2022/03/04 10:42:41;;;;;;;5.85;4.00;;;17.20;39.60;;;;;;5128007;27;45084;-82
2022/03/04 10:45:09;;;;;;;5.22;3.60;;;17.20;39.80;;;;;;5120548;27;45563;-81
2022/03/04 10:47:45;;;;;;;4.90;3.78;;;17.20;40.00;;;;;;5107570;27;45417;-81
2022/03/04 10:50:12;;;;;;;5.20;3.60;;;17.20;40.00;;;;;;5125759;27;45383;-81
2022/03/04 10:52:52;;;;;;;7.45;4.40;;;17.20;39.90;;;;;;5137747;27;45234;-81
2022/03/04 10:55:41;;;;;;;4.50;3.08;;;17.20;40.00;;;;;;5114614;27;46281;-81
2022/03/04 10:58:14;;;;;;;5.05;3.17;;;17.20;40.10;;;;;;5118554;27;45339;-81
2022/03/04 11:00:43;;;;;;;5.05;3.88;;;17.20;40.40;;;;;;5113229;27;45346;-81
2022/03/04 11:03:16;;;;;;;5.00;3.80;;;17.20;40.40;;;;;;5127557;27;45221;-81
2022/03/04 11:05:43;;;;;;;6.82;4.38;;;17.20;40.40;;;;;;5127241;27;46777;-82
2022/03/04 11:08:11;;;;;;;6.63;4.05;;;17.20;40.40;;;;;;5113154;27;45633;-81
2022/03/04 11:10:38;;;;;;;5.90;3.67;;;17.20;40.60;;;;;;5127615;27;45263;-81
2022/03/04 11:13:06;;;;;;;4.72;3.40;;;17.20;40.50;;;;;;5110495;27;45471;-81
2022/03/04 11:15:34;;;;;;;5.63;3.67;;;17.20;40.70;;;;;;5128482;27;45425;-81
2022/03/04 11:18:03;;;;;;;6.43;3.67;;;17.20;40.60;;;;;;5129194;27;45372;-81
2022/03/04 11:20:31;;;;;;;7.00;4.35;;;17.20;42.00;;;;;;5131152;27;45168;-81
2022/03/04 11:22:58;;;;;;;6.03;4.05;;;17.20;40.70;;;;;;5130190;27;45458;-81
2022/03/04 11:25:26;;;;;;;5.07;3.90;;;17.20;40.90;;;;;;5125534;27;47083;-81
2022/03/04 11:27:55;;;;;;;6.28;3.83;;;17.20;40.70;;;;;;5129458;27;45162;-81
2022/03/04 11:30:37;;;;;;;6.03;4.13;;;17.20;40.70;;;;;;5128201;27;46753;-81
2022/03/04 11:33:11;;;;;;;5.50;3.50;;;17.20;40.80;;;;;;5119993;27;45381;-82
2022/03/04 11:36:00;;;;;;;4.97;3.47;;;17.20;40.40;;;;;;5122070;27;45709;-81
2022/03/04 11:39:03;;;;;;;5.68;3.50;;;17.20;40.50;;;;;;5130043;27;45282;-81
2022/03/04 11:41:38;;;;;;;4.40;3.35;;;17.20;40.50;;;;;;5119500;27;45407;-81
2022/03/04 11:44:13;;;;;;;4.35;3.03;;;17.20;40.50;;;;;;5127009;27;45233;-81
2022/03/04 11:46:49;;;;;;;6.50;4.05;;;17.20;40.60;;;;;;5124338;27;45497;-81
2022/03/04 11:49:31;;;;;;;5.88;3.83;;;17.30;40.70;;;;;;5110477;27;45328;-81
2022/03/04 11:52:26;;;;;;;5.63;3.70;;;17.20;40.80;;;;;;5123461;27;45117;-81
2022/03/04 11:55:20;;;;;;;5.43;3.55;;;17.20;40.70;;;;;;5107772;27;45211;-81
2022/03/04 11:57:57;;;;;;;5.95;3.85;;;17.20;40.90;;;;;;5129647;27;45481;-81
2022/03/04 12:00:29;;;;;;;6.30;4.13;;;17.20;41.00;;;;;;5129662;27;45342;-81
2022/03/04 12:02:56;;;;;;;4.95;3.38;;;17.20;40.80;;;;;;5133313;27;45191;-81
2022/03/04 12:05:30;;;;;;;4.88;3.45;;;17.20;41.00;;;;;;5137427;27;45477;-81
2022/03/04 12:08:11;;;;;;;4.85;3.50;;;17.20;41.20;;;;;;5125082;27;47885;-81
2022/03/04 12:10:52;;;;;;;5.68;3.88;;;17.20;41.00;;;;;;5116187;27;45267;-81
2022/03/04 12:13:23;;;;;;;5.75;3.72;;;17.20;40.80;;;;;;5109558;27;45255;-81
2022/03/04 12:16:03;;;;;;;6.28;3.70;;;17.20;40.60;;;;;;5123073;27;45340;-81
2022/03/04 12:18:38;;;;;;;5.97;3.90;;;17.20;40.40;;;;;;5119202;27;45443;-81
2022/03/04 12:21:14;;;;;;;5.18;3.70;;;17.20;40.50;;;;;;5123412;27;45229;-81
2022/03/04 12:23:50;;;;;;;5.53;3.65;;;17.20;40.60;;;;;;5129112;27;45271;-81
2022/03/04 12:26:24;;;;;;;6.35;3.72;;;17.20;40.70;;;;;;5128596;27;45311;-81
2022/03/04 12:29:00;;;;;;;4.32;3.00;;;17.20;40.40;;;;;;5111042;27;46651;-81
2022/03/04 12:31:27;;;;;;;4.97;3.40;;;17.20;40.40;;;;;;5108394;27;45207;-81
2022/03/04 12:33:56;;;;;;;6.03;3.70;;;17.20;39.90;;;;;;5128357;27;45297;-81
2022/03/04 12:36:28;;;;;;;5.68;3.45;;;17.30;40.30;;;;;;5128880;27;45174;-81
2022/03/04 12:38:57;;;;;;;5.75;4.07;;;17.20;40.10;;;;;;5124176;27;47932;-81
2022/03/04 12:41:26;;;;;;;6.25;3.88;;;17.30;40.20;;;;;;5122959;27;45581;-81
2022/03/04 12:43:56;;;;;;;5.28;3.60;;;17.20;40.00;;;;;;5123490;27;45233;-81
2022/03/04 12:46:25;;;;;;;6.00;4.00;;;17.30;40.10;;;;;;5119096;27;45330;-81
2022/03/04 12:48:53;;;;;;;4.93;3.25;;;17.20;39.70;;;;;;5118358;27;47856;-80
2022/03/04 12:51:21;;;;;;;4.85;3.35;;;17.20;39.60;;;;;;5124766;27;45291;-81
2022/03/04 12:53:49;;;;;;;5.85;3.55;;;17.20;39.90;;;;;;5120893;27;45270;-81
2022/03/04 12:56:18;;;;;;;5.00;3.50;;;17.20;39.40;;;;;;5119767;27;45425;-81